Terminal Aerodrome Forecast
Issued by NWS Wilmington, OH

Current Version | Previous Version | Graphics & Text | Print | Product List | Glossary On
Versions: 1 2 3 4 5 6 7 8 9 10 11 12 13 14 15 16 17
755
FTUS41 KILN 172015 AAA
TAFCMH
TAF AMD
KCMH 172015Z 1720/1818 22012KT P6SM VCTS SCT025 BKN035CB
     FM172030 25020G35KT 1SM TSRA SCT025 BKN035CB
     FM172100 22012KT P6SM -SHRA VCTS SCT025 BKN035CB
     FM172200 22009KT P6SM VCSH BKN035
     FM180800 23007KT 4SM BR BKN008
     FM181300 26010KT P6SM BKN015
     FM181700 27012G20KT P6SM BKN040=

USA.gov is the U.S. government's official web portal to all federal, state and local government web resources and services.